createdAt,value
2019-03-22T00:00:07.000Z,29.1
2019-03-22T00:01:22.000Z,29
2019-03-22T00:03:22.000Z,29
2019-03-22T00:05:22.000Z,29
2019-03-22T00:06:22.000Z,29
2019-03-22T00:07:22.000Z,29
2019-03-22T00:08:22.000Z,29.1
2019-03-22T00:10:22.000Z,29.1
2019-03-22T00:12:22.000Z,29.1
2019-03-22T00:13:22.000Z,29.1
2019-03-22T00:15:22.000Z,29.1
2019-03-22T00:17:22.000Z,29
2019-03-22T00:19:22.000Z,29
2019-03-22T00:21:22.000Z,28.9
2019-03-22T00:22:22.000Z,28.9
2019-03-22T00:24:22.000Z,28.9
2019-03-22T00:25:22.000Z,28.9
2019-03-22T00:27:07.000Z,28.9
2019-03-22T00:28:22.000Z,28.8
2019-03-22T00:30:22.000Z,28.6
2019-03-22T00:31:22.000Z,28.6
2019-03-22T00:32:22.000Z,28.7
2019-03-22T00:33:22.000Z,28.8
2019-03-22T00:34:22.000Z,28.9
2019-03-22T00:36:23.000Z,28.9
2019-03-22T00:37:23.000Z,29
2019-03-22T00:39:23.000Z,29
2019-03-22T00:40:23.000Z,29
2019-03-22T00:42:23.000Z,29
2019-03-22T00:43:23.000Z,29
2019-03-22T00:44:23.000Z,29
2019-03-22T00:46:23.000Z,29
2019-03-22T00:47:23.000Z,29
2019-03-22T00:49:23.000Z,28.9
2019-03-22T00:50:23.000Z,28.9
2019-03-22T00:52:23.000Z,28.9
2019-03-22T00:54:23.000Z,28.8
2019-03-22T00:56:23.000Z,28.7
2019-03-22T00:57:23.000Z,28.7
2019-03-22T00:59:23.000Z,28.6
2019-03-22T01:00:23.000Z,28.6
2019-03-22T01:01:23.000Z,28.7
2019-03-22T01:02:23.000Z,28.7
2019-03-22T01:03:23.000Z,28.7
2019-03-22T01:05:23.000Z,28.8
2019-03-22T01:06:23.000Z,28.8
2019-03-22T01:07:23.000Z,28.8
2019-03-22T01:08:23.000Z,28.8
2019-03-22T01:09:23.000Z,28.9
2019-03-22T01:11:23.000Z,29
2019-03-22T01:12:23.000Z,29
2019-03-22T01:14:23.000Z,29
2019-03-22T01:15:23.000Z,29
2019-03-22T01:16:23.000Z,29
2019-03-22T01:18:23.000Z,29
2019-03-22T01:19:23.000Z,29
2019-03-22T01:21:23.000Z,29
2019-03-22T01:23:23.000Z,28.9
2019-03-22T01:25:23.000Z,28.7
2019-03-22T01:27:23.000Z,28.7
2019-03-22T01:29:07.000Z,28.6
2019-03-22T01:30:23.000Z,28.5
2019-03-22T01:31:23.000Z,28.5
2019-03-22T01:33:07.000Z,28.5
2019-03-22T01:34:23.000Z,28.5
2019-03-22T01:35:23.000Z,28.5
2019-03-22T01:37:07.000Z,28.6
2019-03-22T01:38:23.000Z,28.5
2019-03-22T01:40:23.000Z,28.6
2019-03-22T01:41:23.000Z,28.6
2019-03-22T01:43:23.000Z,28.6
2019-03-22T01:44:23.000Z,28.7
2019-03-22T01:46:08.000Z,28.7
2019-03-22T01:47:23.000Z,28.6
2019-03-22T01:49:23.000Z,28.6
2019-03-22T01:51:23.000Z,28.6
2019-03-22T01:53:23.000Z,28.5
2019-03-22T01:54:23.000Z,28.5
2019-03-22T01:56:23.000Z,28.5
2019-03-22T01:58:23.000Z,28.4
2019-03-22T02:00:23.000Z,28.3
2019-03-22T02:02:23.000Z,28.2
2019-03-22T02:03:23.000Z,28.2
2019-03-22T02:04:23.000Z,28.3
2019-03-22T02:06:23.000Z,28.4
2019-03-22T02:08:23.000Z,28.5
2019-03-22T02:10:23.000Z,28.5
2019-03-22T02:12:23.000Z,28.4
2019-03-22T02:13:23.000Z,28.4
2019-03-22T02:15:23.000Z,28.4
2019-03-22T02:16:23.000Z,28.4
2019-03-22T02:17:23.000Z,28.5
2019-03-22T02:19:23.000Z,28.5
2019-03-22T02:21:23.000Z,28.5
2019-03-22T02:22:23.000Z,28.5
2019-03-22T02:24:23.000Z,28.5
2019-03-22T02:26:08.000Z,28.4
2019-03-22T02:27:23.000Z,28.4
2019-03-22T02:28:23.000Z,28.4
2019-03-22T02:30:23.000Z,28.4
2019-03-22T02:31:23.000Z,28.5
2019-03-22T02:32:23.000Z,28.5
2019-03-22T02:34:23.000Z,28.6
2019-03-22T02:35:23.000Z,28.6
2019-03-22T02:37:23.000Z,28.5
2019-03-22T02:39:23.000Z,28.5
2019-03-22T02:41:08.000Z,28.4
2019-03-22T02:42:22.000Z,28.4
2019-03-22T02:44:22.000Z,28.3
2019-03-22T02:46:22.000Z,28.3
2019-03-22T02:48:22.000Z,28.3
2019-03-22T02:49:22.000Z,28.3
2019-03-22T02:51:22.000Z,28.3
2019-03-22T02:52:22.000Z,28.3
2019-03-22T02:54:22.000Z,28.4
2019-03-22T02:55:22.000Z,28.5
2019-03-22T02:57:22.000Z,28.5
2019-03-22T02:59:22.000Z,28.4
2019-03-22T03:00:22.000Z,28.4
2019-03-22T03:02:22.000Z,28.5
2019-03-22T03:03:22.000Z,28.5
2019-03-22T03:04:22.000Z,28.5
2019-03-22T03:06:07.000Z,28.6
2019-03-22T03:07:22.000Z,28.6
2019-03-22T03:08:22.000Z,28.6
2019-03-22T03:10:22.000Z,28.6
2019-03-22T03:11:22.000Z,28.6
2019-03-22T03:13:22.000Z,28.6
2019-03-22T03:15:22.000Z,28.6
2019-03-22T03:17:22.000Z,28.6
2019-03-22T03:19:22.000Z,28.6
2019-03-22T03:21:22.000Z,28.5
2019-03-22T03:23:22.000Z,28.4
2019-03-22T03:24:22.000Z,28.4
2019-03-22T03:25:22.000Z,28.4
2019-03-22T03:27:22.000Z,28.5
2019-03-22T03:29:22.000Z,28.5
2019-03-22T03:31:22.000Z,28.4
2019-03-22T03:32:22.000Z,28.4
2019-03-22T03:33:22.000Z,28.4
2019-03-22T03:35:22.000Z,28.5
2019-03-22T03:37:22.000Z,28.5
2019-03-22T03:38:22.000Z,28.5
2019-03-22T03:40:22.000Z,28.5
2019-03-22T03:42:22.000Z,28.4
2019-03-22T03:43:22.000Z,28.4
2019-03-22T03:45:22.000Z,28.3
2019-03-22T03:46:23.000Z,28.3
2019-03-22T03:48:23.000Z,28.4
2019-03-22T03:49:23.000Z,28.4
2019-03-22T03:51:23.000Z,28.4
2019-03-22T03:52:23.000Z,28.4
2019-03-22T03:54:23.000Z,28.4
2019-03-22T03:55:23.000Z,28.4
2019-03-22T03:56:23.000Z,28.4
2019-03-22T03:57:23.000Z,28.5
2019-03-22T03:59:23.000Z,28.5
2019-03-22T04:01:23.000Z,28.5
2019-03-22T04:02:23.000Z,28.5
2019-03-22T04:03:23.000Z,28.6
2019-03-22T04:05:23.000Z,28.6
2019-03-22T04:07:23.000Z,28.6
2019-03-22T04:09:23.000Z,28.5
2019-03-22T04:10:23.000Z,28.5
2019-03-22T04:11:23.000Z,28.5
2019-03-22T04:13:23.000Z,28.5
2019-03-22T04:15:23.000Z,28.4
2019-03-22T04:16:23.000Z,28.4
2019-03-22T04:18:23.000Z,28.5
2019-03-22T04:19:23.000Z,28.4
2019-03-22T04:20:23.000Z,28.4
2019-03-22T04:22:23.000Z,28.5
2019-03-22T04:23:23.000Z,28.5
2019-03-22T04:24:23.000Z,28.5
2019-03-22T04:26:23.000Z,28.5
2019-03-22T04:28:23.000Z,28.5
2019-03-22T04:30:08.000Z,28.4
2019-03-22T04:31:08.000Z,28.3
2019-03-22T04:32:23.000Z,28.2
2019-03-22T04:34:23.000Z,28.2
2019-03-22T04:36:23.000Z,28.1
2019-03-22T04:38:08.000Z,28
2019-03-22T04:39:23.000Z,27.9
2019-03-22T04:40:23.000Z,28
2019-03-22T04:42:23.000Z,28.1
2019-03-22T04:44:23.000Z,28
2019-03-22T04:45:23.000Z,28
2019-03-22T04:46:23.000Z,28.1
2019-03-22T04:48:23.000Z,28.2
2019-03-22T04:50:22.000Z,28.3
2019-03-22T04:51:22.000Z,28.3
2019-03-22T04:53:22.000Z,28.4
2019-03-22T04:54:22.000Z,28.4
2019-03-22T04:56:22.000Z,28.5
2019-03-22T04:58:22.000Z,28.4
2019-03-22T05:00:22.000Z,28.4
2019-03-22T05:01:22.000Z,28.4
2019-03-22T05:02:22.000Z,28.4
2019-03-22T05:03:22.000Z,28.4
2019-03-22T05:05:22.000Z,28.5
2019-03-22T05:07:22.000Z,28.5
2019-03-22T05:08:22.000Z,28.5
2019-03-22T05:10:22.000Z,28.5
2019-03-22T05:11:22.000Z,28.5
2019-03-22T05:12:22.000Z,28.5
2019-03-22T05:14:22.000Z,28.4
2019-03-22T05:15:22.000Z,28.4
2019-03-22T05:17:22.000Z,28.3
2019-03-22T05:19:22.000Z,28.2
2019-03-22T05:20:22.000Z,27.9
2019-03-22T05:21:22.000Z,27.4
2019-03-22T05:23:22.000Z,26.6
2019-03-22T05:25:07.000Z,26
2019-03-22T05:26:22.000Z,25.6
2019-03-22T05:27:22.000Z,25.3
2019-03-22T05:29:22.000Z,24.8
2019-03-22T05:31:22.000Z,24.2
2019-03-22T05:32:22.000Z,24
2019-03-22T05:34:22.000Z,23.7
2019-03-22T05:36:22.000Z,23.6
2019-03-22T05:37:22.000Z,23.6
2019-03-22T05:39:22.000Z,23.9
2019-03-22T05:40:22.000Z,24.1
2019-03-22T05:42:22.000Z,24.6
2019-03-22T05:43:22.000Z,24.8
2019-03-22T05:45:22.000Z,25.2
2019-03-22T05:47:07.000Z,25.5
2019-03-22T05:48:22.000Z,25.6
2019-03-22T05:49:22.000Z,25.8
2019-03-22T05:51:22.000Z,26
2019-03-22T05:52:22.000Z,26.1
2019-03-22T05:54:23.000Z,26.2
2019-03-22T05:56:23.000Z,26.3
2019-03-22T05:58:23.000Z,26.3
2019-03-22T05:59:23.000Z,26.4
2019-03-22T06:01:23.000Z,26.4
2019-03-22T06:03:23.000Z,26.5
2019-03-22T06:05:23.000Z,26.6
2019-03-22T06:07:23.000Z,26.7
2019-03-22T06:09:08.000Z,26.8
2019-03-22T06:10:23.000Z,26.8
2019-03-22T06:11:23.000Z,26.9
2019-03-22T06:12:23.000Z,27
2019-03-22T06:13:23.000Z,27
2019-03-22T06:15:23.000Z,26.5
2019-03-22T06:17:23.000Z,25.6
2019-03-22T06:19:23.000Z,25.1
2019-03-22T06:21:08.000Z,25.3
2019-03-22T06:22:23.000Z,25.4
2019-03-22T06:24:23.000Z,25.7
2019-03-22T06:25:23.000Z,25.9
2019-03-22T06:27:23.000Z,26.1
2019-03-22T06:28:23.000Z,26.3
2019-03-22T06:29:23.000Z,26.4
2019-03-22T06:31:08.000Z,26.7
2019-03-22T06:32:23.000Z,26.8
2019-03-22T06:34:23.000Z,26.9
2019-03-22T06:36:08.000Z,26.9
2019-03-22T06:37:23.000Z,26.9
2019-03-22T06:38:23.000Z,27
2019-03-22T06:39:23.000Z,27.1
2019-03-22T06:41:23.000Z,27.3
2019-03-22T06:42:23.000Z,27.3
2019-03-22T06:43:23.000Z,27.4
2019-03-22T06:44:23.000Z,27.5
2019-03-22T06:45:23.000Z,27.6
2019-03-22T06:47:08.000Z,27.8
2019-03-22T06:48:23.000Z,27.7
2019-03-22T06:49:23.000Z,27.7
2019-03-22T06:50:23.000Z,27.8
2019-03-22T06:51:23.000Z,27.9
2019-03-22T06:53:23.000Z,28
2019-03-22T06:54:23.000Z,28
2019-03-22T06:56:23.000Z,28.1
2019-03-22T06:58:22.000Z,28.1
2019-03-22T07:00:22.000Z,27.4
2019-03-22T07:01:23.000Z,27
2019-03-22T07:03:22.000Z,26.5
2019-03-22T07:04:22.000Z,26.6
2019-03-22T07:05:22.000Z,26.7
2019-03-22T07:06:23.000Z,26.9
2019-03-22T07:08:22.000Z,27.1
2019-03-22T07:10:22.000Z,27.3
2019-03-22T07:14:23.000Z,27.3
2019-03-22T07:16:09.000Z,27.4
2019-03-22T07:17:09.000Z,27.4
2019-03-22T07:19:09.000Z,27.6
2019-03-22T07:20:09.000Z,27.7
2019-03-22T07:21:09.000Z,27.8
2019-03-22T07:23:09.000Z,28
2019-03-22T07:24:09.000Z,28.2
2019-03-22T07:26:09.000Z,28.4
2019-03-22T07:27:09.000Z,28.5
2019-03-22T07:29:09.000Z,28.7
2019-03-22T07:30:54.000Z,28.9
2019-03-22T07:32:09.000Z,28.9
2019-03-22T07:35:54.000Z,28.9
2019-03-22T07:36:54.000Z,29
2019-03-22T07:38:54.000Z,29.2
2019-03-22T07:40:54.000Z,29.3
2019-03-22T07:41:54.000Z,29.4
2019-03-22T07:42:54.000Z,29.5
2019-03-22T07:44:54.000Z,29.8
2019-03-22T07:46:54.000Z,29.9
2019-03-22T07:48:54.000Z,30.1
2019-03-22T07:50:54.000Z,30.2
2019-03-22T07:51:54.000Z,30.3
2019-03-22T07:53:54.000Z,30.4
2019-03-22T07:54:54.000Z,30.5
2019-03-22T07:56:54.000Z,30.7
2019-03-22T07:57:54.000Z,30.8
2019-03-22T07:58:54.000Z,30.9
2019-03-22T08:00:55.000Z,31.1
2019-03-22T08:01:55.000Z,31
2019-03-22T08:03:55.000Z,30.8
2019-03-22T08:05:40.000Z,30.6
2019-03-22T08:06:55.000Z,30.4
2019-03-22T08:07:55.000Z,30.3
2019-03-22T08:09:55.000Z,30.1
2019-03-22T08:11:40.000Z,29.9
2019-03-22T08:25:04.000Z,28.3
2019-03-22T08:27:04.000Z,28.5
2019-03-22T08:29:04.000Z,28.8
2019-03-22T08:30:48.000Z,29
2019-03-22T08:32:04.000Z,29.1
2019-03-22T08:34:04.000Z,29.1
2019-03-22T08:35:04.000Z,29.1
2019-03-22T08:37:04.000Z,29.3
2019-03-22T08:39:04.000Z,29.2
2019-03-22T08:40:04.000Z,29.3
2019-03-22T08:41:04.000Z,29.4
2019-03-22T08:43:04.000Z,29.5
2019-03-22T08:44:04.000Z,29.5
2019-03-22T08:46:04.000Z,29.6
2019-03-22T08:48:04.000Z,29.5
2019-03-22T08:49:49.000Z,29.3
2019-03-22T08:51:04.000Z,28.9
2019-03-22T08:53:04.000Z,28.4
2019-03-22T08:55:04.000Z,28
2019-03-22T08:57:04.000Z,27.8
2019-03-22T08:58:04.000Z,27.7
2019-03-22T08:59:48.000Z,27.7
2019-03-22T09:00:49.000Z,27.6
2019-03-22T09:02:04.000Z,27.5
2019-03-22T09:04:04.000Z,27.4
2019-03-22T09:06:04.000Z,27.4
2019-03-22T09:08:04.000Z,27.3
2019-03-22T09:09:04.000Z,27.4
2019-03-22T09:11:04.000Z,27.6
2019-03-22T09:13:04.000Z,27.7
2019-03-22T09:14:04.000Z,27.8
2019-03-22T09:15:49.000Z,27.9
2019-03-22T09:17:49.000Z,27.9
2019-03-22T09:19:04.000Z,27.8
2019-03-22T09:21:04.000Z,27.7
2019-03-22T09:23:04.000Z,27.8
2019-03-22T09:24:04.000Z,27.8
2019-03-22T09:26:04.000Z,27.9
2019-03-22T09:27:04.000Z,28
2019-03-22T09:29:04.000Z,28
2019-03-22T09:31:04.000Z,28
2019-03-22T09:33:04.000Z,27.8
2019-03-22T09:34:49.000Z,27.8
2019-03-22T09:36:04.000Z,27.8
2019-03-22T09:37:04.000Z,27.9
2019-03-22T09:39:04.000Z,28.1
2019-03-22T09:41:04.000Z,28.2
2019-03-22T09:43:04.000Z,28.2
2019-03-22T09:44:04.000Z,28.2
2019-03-22T09:46:04.000Z,28.3
2019-03-22T09:48:04.000Z,28.3
2019-03-22T09:49:49.000Z,28.3
2019-03-22T09:51:04.000Z,28.1
2019-03-22T09:53:04.000Z,28.1
2019-03-22T09:55:04.000Z,28.2
2019-03-22T09:57:04.000Z,28.1
2019-03-22T09:59:04.000Z,28.1
2019-03-22T10:00:04.000Z,28.2
2019-03-22T10:01:49.000Z,28.3
2019-03-22T10:03:04.000Z,28.4
2019-03-22T10:05:04.000Z,28.5
2019-03-22T10:06:48.000Z,28.5
2019-03-22T10:07:49.000Z,28.5
2019-03-22T10:10:04.000Z,28.3
2019-03-22T10:12:04.000Z,28.4
2019-03-22T10:13:49.000Z,28.5
2019-03-22T10:15:04.000Z,28.5
2019-03-22T10:17:04.000Z,28.5
2019-03-22T10:18:48.000Z,28.5
2019-03-22T10:19:49.000Z,28.5
2019-03-22T10:20:49.000Z,28.5
2019-03-22T10:22:04.000Z,28.4
2019-03-22T10:23:04.000Z,28.5
2019-03-22T10:25:04.000Z,28.6
2019-03-22T10:26:49.000Z,28.5
2019-03-22T10:28:04.000Z,28.5
2019-03-22T10:29:48.000Z,28.6
2019-03-22T10:30:49.000Z,28.6
2019-03-22T10:32:04.000Z,28.7
2019-03-22T10:34:03.000Z,28.9
2019-03-22T10:36:03.000Z,29
2019-03-22T10:37:48.000Z,29.2
2019-03-22T10:38:49.000Z,29.1
2019-03-22T10:40:03.000Z,29.1
2019-03-22T10:42:03.000Z,29.2
2019-03-22T10:43:48.000Z,29.3
2019-03-22T10:45:03.000Z,29.3
2019-03-22T10:46:03.000Z,29.4
2019-03-22T10:48:03.000Z,29.3
2019-03-22T10:50:03.000Z,29.3
2019-03-22T10:51:48.000Z,29.4
2019-03-22T11:03:22.000Z,28.5
2019-03-22T11:05:22.000Z,28.7
2019-03-22T11:06:22.000Z,28.9
2019-03-22T11:08:22.000Z,29.2
2019-03-22T11:10:07.000Z,29.4
2019-03-22T11:11:22.000Z,29.5
2019-03-22T11:13:22.000Z,29.6
2019-03-22T11:14:22.000Z,29.6
2019-03-22T11:16:22.000Z,29.8
2019-03-22T11:17:22.000Z,29.9
2019-03-22T11:18:22.000Z,30
2019-03-22T11:20:22.000Z,30.1
2019-03-22T11:21:22.000Z,30.2
2019-03-22T11:23:22.000Z,30.4
2019-03-22T11:25:22.000Z,30.4
2019-03-22T11:27:22.000Z,30.4
2019-03-22T11:28:22.000Z,30.5
2019-03-22T11:30:22.000Z,30.5
2019-03-22T11:32:07.000Z,30.5
2019-03-22T11:33:22.000Z,30.3
2019-03-22T11:34:22.000Z,30.3
2019-03-22T11:36:22.000Z,30.3
2019-03-22T11:38:22.000Z,30.3
2019-03-22T11:40:22.000Z,30.2
2019-03-22T11:42:22.000Z,30.2
2019-03-22T11:44:22.000Z,30.1
2019-03-22T11:45:22.000Z,30.1
2019-03-22T11:47:22.000Z,30.1
2019-03-22T11:49:06.000Z,30.2
2019-03-22T11:50:22.000Z,30.3
2019-03-22T11:51:22.000Z,30.3
2019-03-22T11:53:06.000Z,30.4
2019-03-22T11:54:22.000Z,30.4
2019-03-22T11:56:07.000Z,30.4
2019-03-22T11:58:22.000Z,30.1
2019-03-22T11:59:22.000Z,30
2019-03-22T12:01:22.000Z,30.1
2019-03-22T12:03:06.000Z,30.1
2019-03-22T12:04:22.000Z,30.1
2019-03-22T12:05:22.000Z,30.2
2019-03-22T12:07:22.000Z,30.2
2019-03-22T12:09:22.000Z,30.2
2019-03-22T12:10:22.000Z,30.2
2019-03-22T12:12:22.000Z,30.1
2019-03-22T12:13:22.000Z,30.1
2019-03-22T12:15:06.000Z,30.2
2019-03-22T12:16:22.000Z,30.1
2019-03-22T12:17:22.000Z,30.1
2019-03-22T12:19:22.000Z,30.1
2019-03-22T12:21:22.000Z,30.1
2019-03-22T12:23:22.000Z,30.1
2019-03-22T12:24:22.000Z,30.1
2019-03-22T12:25:22.000Z,30.2
2019-03-22T12:27:22.000Z,30.3
2019-03-22T12:29:22.000Z,30.3
2019-03-22T12:31:22.000Z,30.2
2019-03-22T12:32:22.000Z,30.2
2019-03-22T12:34:22.000Z,30.2
2019-03-22T12:35:22.000Z,30.2
2019-03-22T12:36:22.000Z,30.3
2019-03-22T12:38:22.000Z,30.3
2019-03-22T12:40:22.000Z,30.3
2019-03-22T12:42:22.000Z,30.3
2019-03-22T12:44:06.000Z,30.3
2019-03-22T12:45:22.000Z,30.2
2019-03-22T12:47:22.000Z,30.2
2019-03-22T12:49:22.000Z,30.2
2019-03-22T12:50:22.000Z,30.2
2019-03-22T12:51:22.000Z,30.3
2019-03-22T12:53:22.000Z,30.3
2019-03-22T12:55:22.000Z,30.4
2019-03-22T12:57:06.000Z,30.4
2019-03-22T12:58:22.000Z,30.4
2019-03-22T13:00:22.000Z,30.5
2019-03-22T13:02:22.000Z,30.4
2019-03-22T13:04:22.000Z,30.2
2019-03-22T13:06:22.000Z,30.3
2019-03-22T13:07:22.000Z,30.3
2019-03-22T13:08:22.000Z,30.4
2019-03-22T13:10:22.000Z,30.6
2019-03-22T13:12:22.000Z,30.6
2019-03-22T13:14:22.000Z,30.5
2019-03-22T13:15:22.000Z,30.5
2019-03-22T13:16:22.000Z,30.5
2019-03-22T13:18:22.000Z,30.5
2019-03-22T13:19:22.000Z,30.5
2019-03-22T13:21:22.000Z,30.6
2019-03-22T13:22:22.000Z,30.6
2019-03-22T13:24:22.000Z,30.6
2019-03-22T13:26:22.000Z,30.6
2019-03-22T13:28:22.000Z,30.6
2019-03-22T13:29:22.000Z,30.6
2019-03-22T13:30:22.000Z,30.7
2019-03-22T13:31:22.000Z,30.7
2019-03-22T13:33:22.000Z,30.8
2019-03-22T13:35:22.000Z,30.8
2019-03-22T13:36:22.000Z,30.8
2019-03-22T13:37:22.000Z,30.9
2019-03-22T13:38:22.000Z,31
2019-03-22T13:40:22.000Z,31.2
2019-03-22T13:42:22.000Z,31.3
2019-03-22T13:43:22.000Z,31.4
2019-03-22T13:45:22.000Z,31.5
2019-03-22T13:46:22.000Z,31.6
2019-03-22T13:48:22.000Z,31.8
2019-03-22T13:49:22.000Z,32.3
2019-03-22T13:51:06.000Z,33.7
2019-03-22T13:52:22.000Z,35
2019-03-22T13:53:22.000Z,36
2019-03-22T13:54:22.000Z,36.8
2019-03-22T13:56:22.000Z,38
2019-03-22T13:57:22.000Z,38.3
2019-03-22T13:59:22.000Z,37.9
2019-03-22T14:01:22.000Z,36.5
2019-03-22T14:03:22.000Z,35.1
2019-03-22T14:05:06.000Z,34.1
2019-03-22T14:06:22.000Z,33.5
2019-03-22T14:07:22.000Z,33.2
2019-03-22T14:09:22.000Z,32.7
2019-03-22T14:10:22.000Z,32.6
2019-03-22T14:12:22.000Z,32.3
2019-03-22T14:13:22.000Z,32.2
2019-03-22T14:15:07.000Z,32
2019-03-22T14:16:22.000Z,31.9
2019-03-22T14:18:22.000Z,31.8
2019-03-22T14:20:07.000Z,31.6
2019-03-22T14:21:22.000Z,31.4
2019-03-22T14:22:22.000Z,31.3
2019-03-22T14:24:22.000Z,31.2
2019-03-22T14:25:22.000Z,31.2
2019-03-22T14:26:22.000Z,31.2
2019-03-22T14:28:22.000Z,31.2
2019-03-22T14:30:22.000Z,31.2
2019-03-22T14:31:22.000Z,31.2
2019-03-22T14:33:07.000Z,31.2
2019-03-22T14:34:22.000Z,31.1
2019-03-22T14:35:22.000Z,31
2019-03-22T14:37:22.000Z,31.1
2019-03-22T14:39:22.000Z,31.1
2019-03-22T14:41:22.000Z,31.1
2019-03-22T14:43:22.000Z,31
2019-03-22T14:45:22.000Z,30.9
2019-03-22T14:47:22.000Z,30.9
2019-03-22T14:49:22.000Z,30.9
2019-03-22T14:50:22.000Z,30.9
2019-03-22T14:51:22.000Z,31
2019-03-22T14:52:22.000Z,31
2019-03-22T14:53:22.000Z,31.1
2019-03-22T14:54:22.000Z,31.1
2019-03-22T14:55:22.000Z,31.2
2019-03-22T14:57:22.000Z,31.2
2019-03-22T14:59:07.000Z,31.1
2019-03-22T15:00:22.000Z,31.1
2019-03-22T15:02:22.000Z,31
2019-03-22T15:04:22.000Z,31
2019-03-22T15:06:22.000Z,31
2019-03-22T15:08:09.000Z,30.9
2019-03-22T15:09:22.000Z,30.8
2019-03-22T15:10:22.000Z,30.8
2019-03-22T15:11:22.000Z,30.9
2019-03-22T15:13:22.000Z,30.9
2019-03-22T15:15:22.000Z,30.8
2019-03-22T15:16:22.000Z,30.8
2019-03-22T15:18:22.000Z,30.8
2019-03-22T15:19:21.000Z,30.8
2019-03-22T15:21:21.000Z,30.9
2019-03-22T15:22:21.000Z,30.9
2019-03-22T15:23:21.000Z,30.9
2019-03-22T15:25:21.000Z,30.9
2019-03-22T15:27:21.000Z,30.9
2019-03-22T15:28:21.000Z,30.9
2019-03-22T15:30:21.000Z,30.8
2019-03-22T15:31:21.000Z,30.8
2019-03-22T15:32:21.000Z,30.9
2019-03-22T15:34:21.000Z,30.9
2019-03-22T15:36:07.000Z,30.8
2019-03-22T15:37:21.000Z,30.6
2019-03-22T15:39:07.000Z,30.4
2019-03-22T15:40:21.000Z,30.2
2019-03-22T15:41:21.000Z,30.2
2019-03-22T15:42:21.000Z,30.2
2019-03-22T15:44:06.000Z,30.3
2019-03-22T15:45:07.000Z,30.3
2019-03-22T15:46:21.000Z,30.1
2019-03-22T15:47:21.000Z,30.1
2019-03-22T15:49:06.000Z,30.2
2019-03-22T15:50:21.000Z,30.2
2019-03-22T15:52:21.000Z,30.3
2019-03-22T15:54:21.000Z,30.4
2019-03-22T15:56:21.000Z,30.4
2019-03-22T15:57:21.000Z,30.4
2019-03-22T15:59:21.000Z,30.5
2019-03-22T16:00:21.000Z,30.5
2019-03-22T16:01:21.000Z,30.5
2019-03-22T16:02:21.000Z,30.6
2019-03-22T16:04:21.000Z,30.7
2019-03-22T16:05:21.000Z,30.7
2019-03-22T16:07:21.000Z,30.7
2019-03-22T16:08:21.000Z,30.7
2019-03-22T16:10:21.000Z,30.7
2019-03-22T16:12:21.000Z,30.6
2019-03-22T16:13:21.000Z,30.6
2019-03-22T16:14:21.000Z,30.6
2019-03-22T16:15:21.000Z,30.6
2019-03-22T16:17:21.000Z,30.7
2019-03-22T16:19:21.000Z,30.7
2019-03-22T16:21:21.000Z,30.6
2019-03-22T16:23:22.000Z,30.6
2019-03-22T16:25:22.000Z,30.5
2019-03-22T16:26:22.000Z,30.5
2019-03-22T16:27:22.000Z,30.5
2019-03-22T16:29:07.000Z,30.6
2019-03-22T16:30:22.000Z,30.6
2019-03-22T16:31:22.000Z,30.6
2019-03-22T16:33:22.000Z,30.6
2019-03-22T16:35:22.000Z,30.6
2019-03-22T16:37:07.000Z,30.5
2019-03-22T16:38:22.000Z,30.5
2019-03-22T16:40:22.000Z,30.4
2019-03-22T16:42:22.000Z,30.3
2019-03-22T16:44:22.000Z,30.2
2019-03-22T16:45:22.000Z,30.2
2019-03-22T16:47:22.000Z,30.3
2019-03-22T16:49:22.000Z,30.3
2019-03-22T16:51:22.000Z,30.3
2019-03-22T16:53:22.000Z,30.2
2019-03-22T16:54:22.000Z,30.2
2019-03-22T16:56:22.000Z,30.2
2019-03-22T16:57:22.000Z,30.2
2019-03-22T16:59:22.000Z,30.2
2019-03-22T17:01:22.000Z,30.2
2019-03-22T17:02:22.000Z,30.2
2019-03-22T17:04:22.000Z,30.2
2019-03-22T17:05:22.000Z,30.3
2019-03-22T17:06:22.000Z,30.3
2019-03-22T17:07:22.000Z,30.3
2019-03-22T17:08:22.000Z,30.4
2019-03-22T17:10:22.000Z,30.5
2019-03-22T17:12:22.000Z,30.3
2019-03-22T17:13:22.000Z,30.3
2019-03-22T17:14:22.000Z,30.3
2019-03-22T17:16:22.000Z,30.3
2019-03-22T17:17:22.000Z,30.3
2019-03-22T17:19:07.000Z,30.4
2019-03-22T17:20:22.000Z,30.3
2019-03-22T17:21:22.000Z,30.3
2019-03-22T17:22:22.000Z,30.4
2019-03-22T17:23:22.000Z,30.4
2019-03-22T17:25:22.000Z,30.4
2019-03-22T17:26:22.000Z,30.4
2019-03-22T17:28:22.000Z,30.3
2019-03-22T17:30:22.000Z,30.3
2019-03-22T18:07:09.000Z,27.7
2019-03-22T18:09:09.000Z,28
2019-03-22T18:10:09.000Z,28.2
2019-03-22T18:12:09.000Z,28.5
2019-03-22T18:14:09.000Z,28.8
2019-03-22T18:16:09.000Z,29
2019-03-22T18:17:09.000Z,29
2019-03-22T18:19:09.000Z,29.2
2019-03-22T18:21:09.000Z,29.3
2019-03-22T18:23:09.000Z,29.3
2019-03-22T18:25:09.000Z,29.3
2019-03-22T18:27:09.000Z,29.3
2019-03-22T18:29:09.000Z,29.3
2019-03-22T18:31:09.000Z,29.3
2019-03-22T18:32:09.000Z,29.3
2019-03-22T18:33:09.000Z,29.4
2019-03-22T18:34:09.000Z,29.5
2019-03-22T18:35:09.000Z,29.5
2019-03-22T18:36:54.000Z,29.6
2019-03-22T18:38:09.000Z,29.6
2019-03-22T18:39:54.000Z,29.6
2019-03-22T18:41:09.000Z,29.6
2019-03-22T18:43:09.000Z,29.6
2019-03-22T18:44:09.000Z,29.6
2019-03-22T18:46:09.000Z,29.6
2019-03-22T18:47:09.000Z,29.6
2019-03-22T18:49:09.000Z,29.7
2019-03-22T18:50:54.000Z,29.6
2019-03-22T18:52:09.000Z,29.5
2019-03-22T18:53:09.000Z,29.4
2019-03-22T18:54:09.000Z,29.5
2019-03-22T18:55:09.000Z,29.5
2019-03-22T18:57:09.000Z,29.6
2019-03-22T18:58:09.000Z,29.6
2019-03-22T18:59:54.000Z,29.7
2019-03-22T19:01:09.000Z,29.6
2019-03-22T19:02:09.000Z,29.7
2019-03-22T19:03:09.000Z,29.7
2019-03-22T19:05:09.000Z,29.7
2019-03-22T19:07:09.000Z,29.6
2019-03-22T19:08:09.000Z,29.6
2019-03-22T19:10:09.000Z,29.6
2019-03-22T19:11:09.000Z,29.6
2019-03-22T19:13:09.000Z,29.6
2019-03-22T19:15:09.000Z,29.5
2019-03-22T19:17:09.000Z,29.4
2019-03-22T19:19:09.000Z,29.4
2019-03-22T19:20:09.000Z,29.4
2019-03-22T19:22:09.000Z,29.4
2019-03-22T19:23:09.000Z,29.5
2019-03-22T19:25:09.000Z,29.5
2019-03-22T19:26:09.000Z,29.5
2019-03-22T19:27:09.000Z,29.5
2019-03-22T19:28:09.000Z,29.5
2019-03-22T19:29:09.000Z,29.6
2019-03-22T19:30:09.000Z,29.6
2019-03-22T19:32:10.000Z,29.6
2019-03-22T19:34:10.000Z,29.5
2019-03-22T19:36:10.000Z,29.4
2019-03-22T19:37:10.000Z,29.4
2019-03-22T19:39:10.000Z,29.5
2019-03-22T19:41:10.000Z,29.5
2019-03-22T19:42:10.000Z,29.5
2019-03-22T19:44:10.000Z,29.5
2019-03-22T19:45:10.000Z,29.5
2019-03-22T19:47:10.000Z,29.5
2019-03-22T19:49:10.000Z,29.5
2019-03-22T19:50:10.000Z,29.5
2019-03-22T19:52:10.000Z,29.5
2019-03-22T19:54:10.000Z,29.5
2019-03-22T19:55:10.000Z,29.4
2019-03-22T19:57:10.000Z,29.4
2019-03-22T19:58:10.000Z,29.4
2019-03-22T20:00:10.000Z,29.4
2019-03-22T20:02:10.000Z,29.4
2019-03-22T20:04:10.000Z,29.3
2019-03-22T20:06:10.000Z,29.3
2019-03-22T20:08:10.000Z,29.2
2019-03-22T20:10:10.000Z,29
2019-03-22T20:11:10.000Z,29
2019-03-22T20:13:10.000Z,29
2019-03-22T20:14:54.000Z,29.1
2019-03-22T20:16:10.000Z,29.1
2019-03-22T20:18:10.000Z,29.1
2019-03-22T20:19:10.000Z,29.2
2019-03-22T20:21:10.000Z,29.3
2019-03-22T20:23:10.000Z,29.3
2019-03-22T20:25:10.000Z,29.3
2019-03-22T20:27:10.000Z,29.2
2019-03-22T20:29:10.000Z,29.1
2019-03-22T20:31:10.000Z,29.1
2019-03-22T20:33:10.000Z,29.1
2019-03-22T20:35:10.000Z,29.1
2019-03-22T20:37:09.000Z,29
2019-03-22T20:38:09.000Z,29
2019-03-22T20:39:09.000Z,29
2019-03-22T20:40:10.000Z,29.1
2019-03-22T20:42:09.000Z,29.3
2019-03-22T20:44:09.000Z,29.3
2019-03-22T20:46:09.000Z,29.1
2019-03-22T20:48:09.000Z,29
2019-03-22T20:50:09.000Z,29
2019-03-22T20:52:09.000Z,28.9
2019-03-22T20:53:09.000Z,28.9
2019-03-22T20:54:09.000Z,29
2019-03-22T20:55:09.000Z,29.1
2019-03-22T20:57:09.000Z,29.1
2019-03-22T20:59:09.000Z,29.1
2019-03-22T21:01:09.000Z,29
2019-03-22T21:03:09.000Z,29
2019-03-22T21:05:09.000Z,29
2019-03-22T21:07:09.000Z,28.9
2019-03-22T21:09:10.000Z,28.9
2019-03-22T21:11:09.000Z,28.9
2019-03-22T21:12:09.000Z,28.9
2019-03-22T21:14:09.000Z,29
2019-03-22T21:15:09.000Z,29
2019-03-22T21:17:09.000Z,29.1
2019-03-22T21:18:09.000Z,29.2
2019-03-22T21:20:09.000Z,29.3
2019-03-22T21:21:10.000Z,29.3
2019-03-22T21:23:09.000Z,29.2
2019-03-22T21:25:09.000Z,29.1
2019-03-22T21:26:09.000Z,29.1
2019-03-22T21:27:09.000Z,29.1
2019-03-22T21:28:54.000Z,29.1
2019-03-22T21:30:09.000Z,29.1
2019-03-22T21:31:09.000Z,29.1
2019-03-22T21:33:09.000Z,29.2
2019-03-22T21:35:10.000Z,29.1
2019-03-22T21:37:09.000Z,29
2019-03-22T21:38:09.000Z,29
2019-03-22T21:40:10.000Z,28.9
2019-03-22T21:41:10.000Z,29
2019-03-22T21:43:10.000Z,29
2019-03-22T21:44:10.000Z,29
2019-03-22T21:45:54.000Z,29.1
2019-03-22T21:47:10.000Z,29.1
2019-03-22T21:49:10.000Z,29
2019-03-22T21:50:10.000Z,29
2019-03-22T21:52:10.000Z,29
2019-03-22T21:54:10.000Z,29